sensor_id;sensor_type;location;lat;lon;timestamp;temperature;humidity
21338;DHT22;10827;50.878;4.382;2022-10-17T00:01:47;16.10;99.90
21338;DHT22;10827;50.878;4.382;2022-10-17T00:04:13;16.10;99.90
21338;DHT22;10827;50.878;4.382;2022-10-17T00:06:38;16.40;99.90
21338;DHT22;10827;50.878;4.382;2022-10-17T00:16:25;16.90;99.90
21338;DHT22;10827;50.878;4.382;2022-10-17T00:18:51;16.60;99.90
21338;DHT22;10827;50.878;4.382;2022-10-17T00:21:18;16.90;99.90
21338;DHT22;10827;50.878;4.382;2022-10-17T00:26:12;17.20;99.90
21338;DHT22;10827;50.878;4.382;2022-10-17T00:28:38;17.10;99.90
21338;DHT22;10827;50.878;4.382;2022-10-17T00:31:05;17.00;99.90
21338;DHT22;10827;50.878;4.382;2022-10-17T00:33:33;17.30;99.90
21338;DHT22;10827;50.878;4.382;2022-10-17T00:38:28;17.40;99.90
21338;DHT22;10827;50.878;4.382;2022-10-17T00:40:54;17.50;99.90
21338;DHT22;10827;50.878;4.382;2022-10-17T00:43:19;17.20;99.90
21338;DHT22;10827;50.878;4.382;2022-10-17T00:45:45;17.20;99.90
21338;DHT22;10827;50.878;4.382;2022-10-17T00:48:12;17.20;99.90
21338;DHT22;10827;50.878;4.382;2022-10-17T00:50:41;17.30;99.90
21338;DHT22;10827;50.878;4.382;2022-10-17T00:53:08;17.30;99.90
21338;DHT22;10827;50.878;4.382;2022-10-17T00:55:38;17.30;99.90
21338;DHT22;10827;50.878;4.382;2022-10-17T00:58:07;17.80;99.90
21338;DHT22;10827;50.878;4.382;2022-10-17T01:00:33;17.50;99.90
21338;DHT22;10827;50.878;4.382;2022-10-17T01:02:59;17.20;99.90
21338;DHT22;10827;50.878;4.382;2022-10-17T01:07:51;17.60;99.90
21338;DHT22;10827;50.878;4.382;2022-10-17T01:10:18;17.60;99.90
21338;DHT22;10827;50.878;4.382;2022-10-17T01:16:27;17.80;99.90
21338;DHT22;10827;50.878;4.382;2022-10-17T01:18:55;17.70;99.90
21338;DHT22;10827;50.878;4.382;2022-10-17T01:32:18;17.90;99.90
21338;DHT22;10827;50.878;4.382;2022-10-17T01:37:42;18.30;99.90
21338;DHT22;10827;50.878;4.382;2022-10-17T01:40:15;18.40;99.90
21338;DHT22;10827;50.878;4.382;2022-10-17T01:42:54;18.20;99.90
21338;DHT22;10827;50.878;4.382;2022-10-17T01:45:45;18.30;99.90
21338;DHT22;10827;50.878;4.382;2022-10-17T01:48:20;18.30;99.90
21338;DHT22;10827;50.878;4.382;2022-10-17T01:51:00;18.20;99.90
21338;DHT22;10827;50.878;4.382;2022-10-17T01:53:33;18.10;99.90
21338;DHT22;10827;50.878;4.382;2022-10-17T01:56:02;18.50;99.90
21338;DHT22;10827;50.878;4.382;2022-10-17T01:58:35;18.40;99.90
21338;DHT22;10827;50.878;4.382;2022-10-17T02:01:05;18.60;99.90
21338;DHT22;10827;50.878;4.382;2022-10-17T02:03:32;18.40;99.90
21338;DHT22;10827;50.878;4.382;2022-10-17T02:05:59;18.40;99.90
21338;DHT22;10827;50.878;4.382;2022-10-17T02:08:42;18.40;99.90
21338;DHT22;10827;50.878;4.382;2022-10-17T02:11:23;18.40;99.90
21338;DHT22;10827;50.878;4.382;2022-10-17T02:17:03;18.80;99.90
21338;DHT22;10827;50.878;4.382;2022-10-17T02:22:43;18.80;99.90
21338;DHT22;10827;50.878;4.382;2022-10-17T02:33:38;18.80;99.90
21338;DHT22;10827;50.878;4.382;2022-10-17T02:36:10;19.00;99.90
21338;DHT22;10827;50.878;4.382;2022-10-17T02:38:39;18.90;99.90
21338;DHT22;10827;50.878;4.382;2022-10-17T02:41:09;19.00;99.90
21338;DHT22;10827;50.878;4.382;2022-10-17T02:43:37;19.30;99.90
21338;DHT22;10827;50.878;4.382;2022-10-17T02:46:04;19.20;99.90
21338;DHT22;10827;50.878;4.382;2022-10-17T02:48:40;19.00;99.90
21338;DHT22;10827;50.878;4.382;2022-10-17T02:56:53;19.20;99.90
21338;DHT22;10827;50.878;4.382;2022-10-17T02:59:21;18.80;99.90
21338;DHT22;10827;50.878;4.382;2022-10-17T03:01:50;19.30;99.90
21338;DHT22;10827;50.878;4.382;2022-10-17T03:04:16;19.10;99.90
21338;DHT22;10827;50.878;4.382;2022-10-17T03:06:43;18.90;99.90
21338;DHT22;10827;50.878;4.382;2022-10-17T03:09:10;18.90;99.90
21338;DHT22;10827;50.878;4.382;2022-10-17T03:11:36;18.80;99.90
21338;DHT22;10827;50.878;4.382;2022-10-17T03:14:02;18.70;99.90
21338;DHT22;10827;50.878;4.382;2022-10-17T03:16:28;18.90;99.90
21338;DHT22;10827;50.878;4.382;2022-10-17T03:18:54;18.80;99.90
21338;DHT22;10827;50.878;4.382;2022-10-17T03:21:19;18.90;99.90
21338;DHT22;10827;50.878;4.382;2022-10-17T03:23:45;17.30;99.90
21338;DHT22;10827;50.878;4.382;2022-10-17T03:26:11;19.10;99.90
21338;DHT22;10827;50.878;4.382;2022-10-17T03:28:36;19.20;99.90
21338;DHT22;10827;50.878;4.382;2022-10-17T03:31:07;18.80;99.90
21338;DHT22;10827;50.878;4.382;2022-10-17T03:33:33;19.30;99.90
21338;DHT22;10827;50.878;4.382;2022-10-17T03:35:59;19.00;99.90
21338;DHT22;10827;50.878;4.382;2022-10-17T03:38:24;18.80;99.90
21338;DHT22;10827;50.878;4.382;2022-10-17T03:43:22;20.00;99.90
21338;DHT22;10827;50.878;4.382;2022-10-17T03:48:13;19.00;99.90
21338;DHT22;10827;50.878;4.382;2022-10-17T03:50:39;17.20;99.90
21338;DHT22;10827;50.878;4.382;2022-10-17T03:53:04;18.90;99.90
21338;DHT22;10827;50.878;4.382;2022-10-17T03:57:56;18.80;99.90
21338;DHT22;10827;50.878;4.382;2022-10-17T04:00:21;18.90;99.90
21338;DHT22;10827;50.878;4.382;2022-10-17T04:02:47;19.20;99.90
21338;DHT22;10827;50.878;4.382;2022-10-17T04:05:13;19.00;99.90
21338;DHT22;10827;50.878;4.382;2022-10-17T04:10:05;18.80;99.90
21338;DHT22;10827;50.878;4.382;2022-10-17T04:12:30;19.20;99.90
21338;DHT22;10827;50.878;4.382;2022-10-17T04:19:48;19.00;99.90
21338;DHT22;10827;50.878;4.382;2022-10-17T04:24:40;19.10;99.90
21338;DHT22;10827;50.878;4.382;2022-10-17T04:27:05;19.10;99.90
21338;DHT22;10827;50.878;4.382;2022-10-17T04:29:31;19.10;99.90
21338;DHT22;10827;50.878;4.382;2022-10-17T04:31:57;19.30;99.90
21338;DHT22;10827;50.878;4.382;2022-10-17T04:36:49;19.80;99.90
21338;DHT22;10827;50.878;4.382;2022-10-17T04:39:16;18.80;99.90
21338;DHT22;10827;50.878;4.382;2022-10-17T04:44:09;18.90;99.90
21338;DHT22;10827;50.878;4.382;2022-10-17T04:49:01;19.00;99.90
21338;DHT22;10827;50.878;4.382;2022-10-17T04:53:54;19.00;99.90
21338;DHT22;10827;50.878;4.382;2022-10-17T04:56:21;19.00;99.90
21338;DHT22;10827;50.878;4.382;2022-10-17T04:58:47;18.90;99.90
21338;DHT22;10827;50.878;4.382;2022-10-17T05:01:16;18.90;99.90
21338;DHT22;10827;50.878;4.382;2022-10-17T05:03:43;19.10;99.90
21338;DHT22;10827;50.878;4.382;2022-10-17T05:06:13;19.00;99.90
21338;DHT22;10827;50.878;4.382;2022-10-17T05:08:39;19.00;99.90
21338;DHT22;10827;50.878;4.382;2022-10-17T05:11:21;19.00;99.90
21338;DHT22;10827;50.878;4.382;2022-10-17T05:13:57;18.90;99.90
21338;DHT22;10827;50.878;4.382;2022-10-17T05:16:24;18.80;99.90
21338;DHT22;10827;50.878;4.382;2022-10-17T05:18:52;19.00;99.90
21338;DHT22;10827;50.878;4.382;2022-10-17T05:21:18;19.30;99.90
21338;DHT22;10827;50.878;4.382;2022-10-17T05:23:44;18.90;99.90
21338;DHT22;10827;50.878;4.382;2022-10-17T05:26:11;18.90;99.90
21338;DHT22;10827;50.878;4.382;2022-10-17T05:28:36;18.90;99.90
21338;DHT22;10827;50.878;4.382;2022-10-17T05:31:03;18.80;99.90
21338;DHT22;10827;50.878;4.382;2022-10-17T05:33:29;18.90;99.90
21338;DHT22;10827;50.878;4.382;2022-10-17T05:38:21;19.00;99.90
21338;DHT22;10827;50.878;4.382;2022-10-17T05:45:39;18.90;99.90
21338;DHT22;10827;50.878;4.382;2022-10-17T05:52:58;18.90;99.90
21338;DHT22;10827;50.878;4.382;2022-10-17T05:55:23;18.80;99.90
21338;DHT22;10827;50.878;4.382;2022-10-17T05:57:49;19.00;99.90
21338;DHT22;10827;50.878;4.382;2022-10-17T06:00:17;19.10;99.90
21338;DHT22;10827;50.878;4.382;2022-10-17T06:02:43;19.00;99.90
21338;DHT22;10827;50.878;4.382;2022-10-17T06:05:10;19.00;99.90
21338;DHT22;10827;50.878;4.382;2022-10-17T06:10:02;19.00;99.90
21338;DHT22;10827;50.878;4.382;2022-10-17T06:12:28;19.10;99.90
21338;DHT22;10827;50.878;4.382;2022-10-17T06:14:54;19.10;99.90
21338;DHT22;10827;50.878;4.382;2022-10-17T06:22:12;19.10;99.90
21338;DHT22;10827;50.878;4.382;2022-10-17T06:24:37;19.30;99.90
21338;DHT22;10827;50.878;4.382;2022-10-17T06:29:29;19.30;99.90
21338;DHT22;10827;50.878;4.382;2022-10-17T06:31:55;19.20;99.90
21338;DHT22;10827;50.878;4.382;2022-10-17T06:36:46;19.20;99.90
21338;DHT22;10827;50.878;4.382;2022-10-17T06:39:12;19.40;99.90
21338;DHT22;10827;50.878;4.382;2022-10-17T06:41:38;19.10;99.90
21338;DHT22;10827;50.878;4.382;2022-10-17T06:44:05;18.90;99.90
21338;DHT22;10827;50.878;4.382;2022-10-17T06:46:36;18.70;99.90
21338;DHT22;10827;50.878;4.382;2022-10-17T06:49:02;18.70;99.90
21338;DHT22;10827;50.878;4.382;2022-10-17T06:51:29;18.60;99.90
21338;DHT22;10827;50.878;4.382;2022-10-17T06:53:57;18.40;99.90
21338;DHT22;10827;50.878;4.382;2022-10-17T06:58:49;18.60;99.90
21338;DHT22;10827;50.878;4.382;2022-10-17T07:01:16;18.70;99.90
21338;DHT22;10827;50.878;4.382;2022-10-17T07:06:08;18.70;99.90
21338;DHT22;10827;50.878;4.382;2022-10-17T07:08:41;19.10;99.90
21338;DHT22;10827;50.878;4.382;2022-10-17T07:11:11;18.80;99.90
21338;DHT22;10827;50.878;4.382;2022-10-17T07:13:37;18.60;99.90
21338;DHT22;10827;50.878;4.382;2022-10-17T07:16:03;18.70;99.90
21338;DHT22;10827;50.878;4.382;2022-10-17T07:28:14;17.60;99.90
21338;DHT22;10827;50.878;4.382;2022-10-17T07:30:41;17.70;99.90
21338;DHT22;10827;50.878;4.382;2022-10-17T07:42:51;17.00;99.90
21338;DHT22;10827;50.878;4.382;2022-10-17T07:45:18;16.90;99.90
21338;DHT22;10827;50.878;4.382;2022-10-17T07:52:35;16.90;99.90
21338;DHT22;10827;50.878;4.382;2022-10-17T07:55:01;16.90;99.90
21338;DHT22;10827;50.878;4.382;2022-10-17T07:57:27;17.00;99.90
21338;DHT22;10827;50.878;4.382;2022-10-17T08:02:24;17.10;99.90
21338;DHT22;10827;50.878;4.382;2022-10-17T08:04:51;17.00;99.90
21338;DHT22;10827;50.878;4.382;2022-10-17T08:12:10;17.20;99.90
21338;DHT22;10827;50.878;4.382;2022-10-17T08:14:36;17.20;99.90
21338;DHT22;10827;50.878;4.382;2022-10-17T08:17:01;17.10;99.90
21338;DHT22;10827;50.878;4.382;2022-10-17T08:19:27;17.50;99.90
21338;DHT22;10827;50.878;4.382;2022-10-17T08:24:19;17.20;99.90
21338;DHT22;10827;50.878;4.382;2022-10-17T08:29:15;17.30;99.90
21338;DHT22;10827;50.878;4.382;2022-10-17T08:31:41;17.40;99.90
21338;DHT22;10827;50.878;4.382;2022-10-17T08:38:59;17.50;99.90
21338;DHT22;10827;50.878;4.382;2022-10-17T08:47:01;17.60;99.90
21338;DHT22;10827;50.878;4.382;2022-10-17T08:49:47;18.00;99.90
21338;DHT22;10827;50.878;4.382;2022-10-17T08:52:28;18.10;99.90
21338;DHT22;10827;50.878;4.382;2022-10-17T08:54:56;18.30;99.90
21338;DHT22;10827;50.878;4.382;2022-10-17T08:59:52;18.30;99.90
21338;DHT22;10827;50.878;4.382;2022-10-17T09:02:52;18.30;99.90
21338;DHT22;10827;50.878;4.382;2022-10-17T09:05:45;18.20;99.90
21338;DHT22;10827;50.878;4.382;2022-10-17T09:10:56;18.20;99.90
21338;DHT22;10827;50.878;4.382;2022-10-17T09:13:48;18.20;99.90
21338;DHT22;10827;50.878;4.382;2022-10-17T09:18:53;18.30;99.90
21338;DHT22;10827;50.878;4.382;2022-10-17T09:24:08;18.60;99.90
21338;DHT22;10827;50.878;4.382;2022-10-17T09:26:38;18.40;99.90
21338;DHT22;10827;50.878;4.382;2022-10-17T09:29:23;18.00;99.90
21338;DHT22;10827;50.878;4.382;2022-10-17T09:32:00;17.70;99.90
21338;DHT22;10827;50.878;4.382;2022-10-17T09:34:28;17.60;99.90
21338;DHT22;10827;50.878;4.382;2022-10-17T09:36:54;17.80;99.90
21338;DHT22;10827;50.878;4.382;2022-10-17T09:39:23;17.80;99.90
21338;DHT22;10827;50.878;4.382;2022-10-17T09:41:55;17.80;99.90
21338;DHT22;10827;50.878;4.382;2022-10-17T09:49:38;17.70;99.90
21338;DHT22;10827;50.878;4.382;2022-10-17T10:00:24;17.40;99.90
21338;DHT22;10827;50.878;4.382;2022-10-17T10:05:18;17.50;99.90
21338;DHT22;10827;50.878;4.382;2022-10-17T10:08:00;17.70;99.90
21338;DHT22;10827;50.878;4.382;2022-10-17T10:10:28;17.60;99.90
21338;DHT22;10827;50.878;4.382;2022-10-17T10:13:09;17.70;99.90
21338;DHT22;10827;50.878;4.382;2022-10-17T10:15:45;17.90;99.90
21338;DHT22;10827;50.878;4.382;2022-10-17T10:18:33;17.40;99.90
21338;DHT22;10827;50.878;4.382;2022-10-17T10:21:20;17.60;99.90
21338;DHT22;10827;50.878;4.382;2022-10-17T10:29:22;17.70;99.90
21338;DHT22;10827;50.878;4.382;2022-10-17T10:31:50;18.10;99.90
21338;DHT22;10827;50.878;4.382;2022-10-17T10:34:27;17.80;99.90
21338;DHT22;10827;50.878;4.382;2022-10-17T10:39:36;17.70;99.90
21338;DHT22;10827;50.878;4.382;2022-10-17T10:42:06;17.60;99.90
21338;DHT22;10827;50.878;4.382;2022-10-17T10:44:35;17.80;99.90
21338;DHT22;10827;50.878;4.382;2022-10-17T10:49:44;17.80;99.90
21338;DHT22;10827;50.878;4.382;2022-10-17T10:52:23;17.90;99.90
21338;DHT22;10827;50.878;4.382;2022-10-17T10:55:13;17.90;99.90
21338;DHT22;10827;50.878;4.382;2022-10-17T10:57:42;17.80;99.90
21338;DHT22;10827;50.878;4.382;2022-10-17T11:00:18;17.90;99.90
21338;DHT22;10827;50.878;4.382;2022-10-17T11:02:58;17.80;99.90
21338;DHT22;10827;50.878;4.382;2022-10-17T11:13:55;18.10;99.90
21338;DHT22;10827;50.878;4.382;2022-10-17T11:16:37;17.90;99.90
21338;DHT22;10827;50.878;4.382;2022-10-17T11:19:32;17.80;99.90
21338;DHT22;10827;50.878;4.382;2022-10-17T11:27:25;17.80;99.90
21338;DHT22;10827;50.878;4.382;2022-10-17T11:32:58;17.90;99.90
21338;DHT22;10827;50.878;4.382;2022-10-17T11:40:35;17.80;99.90
21338;DHT22;10827;50.878;4.382;2022-10-17T11:43:11;17.50;99.90
21338;DHT22;10827;50.878;4.382;2022-10-17T11:45:45;17.60;99.90
21338;DHT22;10827;50.878;4.382;2022-10-17T11:53:26;17.60;99.90
21338;DHT22;10827;50.878;4.382;2022-10-17T11:55:53;17.60;99.90
21338;DHT22;10827;50.878;4.382;2022-10-17T11:58:45;17.70;99.90
21338;DHT22;10827;50.878;4.382;2022-10-17T12:01:31;17.60;99.90
21338;DHT22;10827;50.878;4.382;2022-10-17T12:04:27;17.40;99.90
21338;DHT22;10827;50.878;4.382;2022-10-17T12:07:21;17.70;99.90
21338;DHT22;10827;50.878;4.382;2022-10-17T12:10:02;17.70;99.90
21338;DHT22;10827;50.878;4.382;2022-10-17T12:12:31;18.10;99.90
21338;DHT22;10827;50.878;4.382;2022-10-17T12:18:01;18.30;99.90
21338;DHT22;10827;50.878;4.382;2022-10-17T12:20:35;18.10;99.90
21338;DHT22;10827;50.878;4.382;2022-10-17T12:25:47;18.10;99.90
21338;DHT22;10827;50.878;4.382;2022-10-17T12:28:14;17.90;99.90
21338;DHT22;10827;50.878;4.382;2022-10-17T12:30:53;18.10;99.90
21338;DHT22;10827;50.878;4.382;2022-10-17T12:34:04;18.00;99.90
21338;DHT22;10827;50.878;4.382;2022-10-17T12:38:49;18.00;99.90
21338;DHT22;10827;50.878;4.382;2022-10-17T12:41:15;18.20;99.90
21338;DHT22;10827;50.878;4.382;2022-10-17T12:43:48;18.30;99.90
21338;DHT22;10827;50.878;4.382;2022-10-17T12:59:47;17.90;99.90
21338;DHT22;10827;50.878;4.382;2022-10-17T13:02:20;18.20;99.90
21338;DHT22;10827;50.878;4.382;2022-10-17T13:04:49;18.20;99.90
21338;DHT22;10827;50.878;4.382;2022-10-17T13:07:20;18.30;99.90
21338;DHT22;10827;50.878;4.382;2022-10-17T13:09:47;18.20;99.90
21338;DHT22;10827;50.878;4.382;2022-10-17T13:12:19;18.10;99.90
21338;DHT22;10827;50.878;4.382;2022-10-17T13:14:47;18.20;99.90
21338;DHT22;10827;50.878;4.382;2022-10-17T13:17:28;18.30;99.90
21338;DHT22;10827;50.878;4.382;2022-10-17T13:19:55;18.30;99.90
21338;DHT22;10827;50.878;4.382;2022-10-17T13:22:24;18.40;99.90
21338;DHT22;10827;50.878;4.382;2022-10-17T13:24:51;18.30;99.90
21338;DHT22;10827;50.878;4.382;2022-10-17T13:27:29;18.50;99.90
21338;DHT22;10827;50.878;4.382;2022-10-17T13:29:57;18.60;99.90
21338;DHT22;10827;50.878;4.382;2022-10-17T13:32:24;18.60;99.90
21338;DHT22;10827;50.878;4.382;2022-10-17T13:35:10;18.60;99.90
21338;DHT22;10827;50.878;4.382;2022-10-17T13:37:41;18.60;99.90
21338;DHT22;10827;50.878;4.382;2022-10-17T13:40:19;18.70;99.90
21338;DHT22;10827;50.878;4.382;2022-10-17T13:42:45;18.40;99.90
21338;DHT22;10827;50.878;4.382;2022-10-17T13:45:18;18.80;99.90
21338;DHT22;10827;50.878;4.382;2022-10-17T13:47:45;18.40;99.90
21338;DHT22;10827;50.878;4.382;2022-10-17T13:53:11;18.70;99.90
21338;DHT22;10827;50.878;4.382;2022-10-17T13:55:50;18.50;99.90
21338;DHT22;10827;50.878;4.382;2022-10-17T13:58:16;18.50;99.90
21338;DHT22;10827;50.878;4.382;2022-10-17T14:00:43;18.50;99.90
21338;DHT22;10827;50.878;4.382;2022-10-17T14:03:10;19.10;99.90
21338;DHT22;10827;50.878;4.382;2022-10-17T14:08:28;19.00;99.90
21338;DHT22;10827;50.878;4.382;2022-10-17T14:13:31;18.60;99.90
21338;DHT22;10827;50.878;4.382;2022-10-17T14:16:02;18.70;99.90
21338;DHT22;10827;50.878;4.382;2022-10-17T14:18:32;18.90;99.90
21338;DHT22;10827;50.878;4.382;2022-10-17T14:20:59;18.70;99.90
21338;DHT22;10827;50.878;4.382;2022-10-17T14:23:45;18.80;99.90
21338;DHT22;10827;50.878;4.382;2022-10-17T14:28:40;19.00;99.90
21338;DHT22;10827;50.878;4.382;2022-10-17T14:33:46;19.10;99.90
21338;DHT22;10827;50.878;4.382;2022-10-17T14:36:12;18.90;99.90
21338;DHT22;10827;50.878;4.382;2022-10-17T14:38:47;19.10;99.90
21338;DHT22;10827;50.878;4.382;2022-10-17T14:41:22;19.20;99.90
21338;DHT22;10827;50.878;4.382;2022-10-17T14:44:06;19.20;99.90
21338;DHT22;10827;50.878;4.382;2022-10-17T14:49:07;19.30;99.90
21338;DHT22;10827;50.878;4.382;2022-10-17T14:51:40;19.30;99.90
21338;DHT22;10827;50.878;4.382;2022-10-17T14:54:25;19.10;99.90
21338;DHT22;10827;50.878;4.382;2022-10-17T14:56:53;19.00;99.90
21338;DHT22;10827;50.878;4.382;2022-10-17T14:59:19;19.40;99.90
21338;DHT22;10827;50.878;4.382;2022-10-17T15:01:49;19.30;99.90
21338;DHT22;10827;50.878;4.382;2022-10-17T15:04:14;19.30;99.90
21338;DHT22;10827;50.878;4.382;2022-10-17T15:06:40;19.00;99.90
21338;DHT22;10827;50.878;4.382;2022-10-17T15:09:06;19.00;99.90
21338;DHT22;10827;50.878;4.382;2022-10-17T15:11:31;19.10;99.90
21338;DHT22;10827;50.878;4.382;2022-10-17T15:16:25;19.40;99.90
21338;DHT22;10827;50.878;4.382;2022-10-17T15:18:52;19.40;99.90
21338;DHT22;10827;50.878;4.382;2022-10-17T15:21:22;19.30;99.90
21338;DHT22;10827;50.878;4.382;2022-10-17T15:26:23;19.40;99.90
21338;DHT22;10827;50.878;4.382;2022-10-17T15:28:50;19.20;99.90
21338;DHT22;10827;50.878;4.382;2022-10-17T15:31:18;19.20;99.90
21338;DHT22;10827;50.878;4.382;2022-10-17T15:33:45;19.10;99.90
21338;DHT22;10827;50.878;4.382;2022-10-17T15:36:25;19.10;99.90
21338;DHT22;10827;50.878;4.382;2022-10-17T15:38:55;19.30;99.90
21338;DHT22;10827;50.878;4.382;2022-10-17T15:41:23;19.50;99.90
21338;DHT22;10827;50.878;4.382;2022-10-17T15:43:49;19.40;99.90
21338;DHT22;10827;50.878;4.382;2022-10-17T15:46:22;19.50;99.90
21338;DHT22;10827;50.878;4.382;2022-10-17T15:48:49;19.20;99.90
21338;DHT22;10827;50.878;4.382;2022-10-17T15:51:16;18.90;99.90
21338;DHT22;10827;50.878;4.382;2022-10-17T15:53:41;19.10;99.90
21338;DHT22;10827;50.878;4.382;2022-10-17T15:56:20;19.20;99.90
21338;DHT22;10827;50.878;4.382;2022-10-17T16:01:28;19.00;99.90
21338;DHT22;10827;50.878;4.382;2022-10-17T16:03:55;18.90;99.90
21338;DHT22;10827;50.878;4.382;2022-10-17T16:06:21;19.10;99.90
21338;DHT22;10827;50.878;4.382;2022-10-17T16:08:47;19.00;99.90
21338;DHT22;10827;50.878;4.382;2022-10-17T16:13:55;18.90;99.90
21338;DHT22;10827;50.878;4.382;2022-10-17T16:16:21;19.00;99.90
21338;DHT22;10827;50.878;4.382;2022-10-17T16:18:47;19.00;99.90
21338;DHT22;10827;50.878;4.382;2022-10-17T16:21:15;19.10;99.90
21338;DHT22;10827;50.878;4.382;2022-10-17T16:23:41;19.30;99.90
21338;DHT22;10827;50.878;4.382;2022-10-17T16:26:07;19.40;99.90
21338;DHT22;10827;50.878;4.382;2022-10-17T16:28:34;19.10;99.90
21338;DHT22;10827;50.878;4.382;2022-10-17T16:33:26;19.20;99.90
21338;DHT22;10827;50.878;4.382;2022-10-17T16:35:52;19.40;99.90
21338;DHT22;10827;50.878;4.382;2022-10-17T16:38:17;19.30;99.90
21338;DHT22;10827;50.878;4.382;2022-10-17T16:43:12;19.30;99.90
21338;DHT22;10827;50.878;4.382;2022-10-17T16:48:05;19.50;99.90
21338;DHT22;10827;50.878;4.382;2022-10-17T16:53:00;19.60;99.90
21338;DHT22;10827;50.878;4.382;2022-10-17T16:55:26;19.60;99.90
21338;DHT22;10827;50.878;4.382;2022-10-17T16:57:52;19.50;99.90
21338;DHT22;10827;50.878;4.382;2022-10-17T17:00:17;19.50;99.90
21338;DHT22;10827;50.878;4.382;2022-10-17T17:02:45;19.50;99.90
21338;DHT22;10827;50.878;4.382;2022-10-17T17:10:04;19.50;99.90
21338;DHT22;10827;50.878;4.382;2022-10-17T17:12:32;19.50;99.90
21338;DHT22;10827;50.878;4.382;2022-10-17T17:14:58;19.40;99.90
21338;DHT22;10827;50.878;4.382;2022-10-17T17:17:24;19.40;99.90
21338;DHT22;10827;50.878;4.382;2022-10-17T17:19:49;19.50;99.90
21338;DHT22;10827;50.878;4.382;2022-10-17T17:22:15;19.20;99.90
21338;DHT22;10827;50.878;4.382;2022-10-17T17:27:07;19.30;99.90
21338;DHT22;10827;50.878;4.382;2022-10-17T17:29:32;19.30;99.90
21338;DHT22;10827;50.878;4.382;2022-10-17T17:34:24;19.40;99.90
21338;DHT22;10827;50.878;4.382;2022-10-17T17:36:49;19.70;99.90
21338;DHT22;10827;50.878;4.382;2022-10-17T17:39:15;19.00;99.90
21338;DHT22;10827;50.878;4.382;2022-10-17T17:41:42;19.00;99.90
21338;DHT22;10827;50.878;4.382;2022-10-17T17:44:10;19.30;99.90
21338;DHT22;10827;50.878;4.382;2022-10-17T17:49:02;18.80;99.90
21338;DHT22;10827;50.878;4.382;2022-10-17T17:51:27;19.30;99.90
21338;DHT22;10827;50.878;4.382;2022-10-17T17:56:24;19.00;99.90
21338;DHT22;10827;50.878;4.382;2022-10-17T17:58:58;19.00;99.90
21338;DHT22;10827;50.878;4.382;2022-10-17T18:01:27;19.00;99.90
21338;DHT22;10827;50.878;4.382;2022-10-17T18:03:54;18.90;99.90
21338;DHT22;10827;50.878;4.382;2022-10-17T18:06:21;19.00;99.90
21338;DHT22;10827;50.878;4.382;2022-10-17T18:08:50;19.00;99.90
21338;DHT22;10827;50.878;4.382;2022-10-17T18:11:16;19.10;99.90
21338;DHT22;10827;50.878;4.382;2022-10-17T18:13:42;19.50;99.90
21338;DHT22;10827;50.878;4.382;2022-10-17T18:18:39;19.00;99.90
21338;DHT22;10827;50.878;4.382;2022-10-17T18:23:32;18.70;99.90
21338;DHT22;10827;50.878;4.382;2022-10-17T18:28:26;18.70;99.90
21338;DHT22;10827;50.878;4.382;2022-10-17T18:33:18;18.70;99.90
21338;DHT22;10827;50.878;4.382;2022-10-17T18:35:44;18.70;99.90
21338;DHT22;10827;50.878;4.382;2022-10-17T18:40:36;18.90;99.90
21338;DHT22;10827;50.878;4.382;2022-10-17T18:45:28;18.80;99.90
21338;DHT22;10827;50.878;4.382;2022-10-17T18:50:23;18.80;99.90
21338;DHT22;10827;50.878;4.382;2022-10-17T18:52:50;18.50;99.90
21338;DHT22;10827;50.878;4.382;2022-10-17T18:55:16;18.90;99.90
21338;DHT22;10827;50.878;4.382;2022-10-17T18:57:47;18.70;99.90
21338;DHT22;10827;50.878;4.382;2022-10-17T19:00:15;18.70;99.90
21338;DHT22;10827;50.878;4.382;2022-10-17T19:02:41;19.30;99.90
21338;DHT22;10827;50.878;4.382;2022-10-17T19:05:07;18.50;99.90
21338;DHT22;10827;50.878;4.382;2022-10-17T19:17:21;18.60;99.90
21338;DHT22;10827;50.878;4.382;2022-10-17T19:22:16;18.70;99.90
21338;DHT22;10827;50.878;4.382;2022-10-17T19:24:41;18.50;99.90
21338;DHT22;10827;50.878;4.382;2022-10-17T19:29:36;18.70;99.90
21338;DHT22;10827;50.878;4.382;2022-10-17T19:34:34;18.20;99.90
21338;DHT22;10827;50.878;4.382;2022-10-17T19:36:59;18.30;99.90
21338;DHT22;10827;50.878;4.382;2022-10-17T19:41:51;18.10;99.90
21338;DHT22;10827;50.878;4.382;2022-10-17T19:44:17;18.30;99.90
21338;DHT22;10827;50.878;4.382;2022-10-17T19:46:43;18.30;99.90
21338;DHT22;10827;50.878;4.382;2022-10-17T19:49:11;18.20;99.90
21338;DHT22;10827;50.878;4.382;2022-10-17T19:51:37;18.50;99.90
21338;DHT22;10827;50.878;4.382;2022-10-17T19:54:03;18.50;99.90
21338;DHT22;10827;50.878;4.382;2022-10-17T19:56:30;18.40;99.90
21338;DHT22;10827;50.878;4.382;2022-10-17T19:58:57;18.40;99.90
21338;DHT22;10827;50.878;4.382;2022-10-17T20:01:28;18.40;99.90
21338;DHT22;10827;50.878;4.382;2022-10-17T20:03:55;18.80;99.90
21338;DHT22;10827;50.878;4.382;2022-10-17T20:06:21;18.10;99.90
21338;DHT22;10827;50.878;4.382;2022-10-17T20:08:47;18.10;99.90
21338;DHT22;10827;50.878;4.382;2022-10-17T20:11:18;18.20;99.90
21338;DHT22;10827;50.878;4.382;2022-10-17T20:13:44;18.10;99.90
21338;DHT22;10827;50.878;4.382;2022-10-17T20:16:17;18.10;99.90
21338;DHT22;10827;50.878;4.382;2022-10-17T20:18:47;17.90;99.90
21338;DHT22;10827;50.878;4.382;2022-10-17T20:21:15;18.00;99.90
21338;DHT22;10827;50.878;4.382;2022-10-17T20:23:41;18.10;99.90
21338;DHT22;10827;50.878;4.382;2022-10-17T20:26:12;18.10;99.90
21338;DHT22;10827;50.878;4.382;2022-10-17T20:28:39;17.60;99.90
21338;DHT22;10827;50.878;4.382;2022-10-17T20:31:06;17.90;99.90
21338;DHT22;10827;50.878;4.382;2022-10-17T20:33:32;18.50;99.90
21338;DHT22;10827;50.878;4.382;2022-10-17T20:38:23;18.20;99.90
21338;DHT22;10827;50.878;4.382;2022-10-17T20:40:49;18.20;99.90
21338;DHT22;10827;50.878;4.382;2022-10-17T20:45:42;18.40;99.90
21338;DHT22;10827;50.878;4.382;2022-10-17T20:48:13;18.50;99.90
21338;DHT22;10827;50.878;4.382;2022-10-17T20:50:40;18.30;99.90
21338;DHT22;10827;50.878;4.382;2022-10-17T20:53:06;18.10;99.90
21338;DHT22;10827;50.878;4.382;2022-10-17T20:55:32;18.00;99.90
21338;DHT22;10827;50.878;4.382;2022-10-17T20:57:58;18.20;99.90
21338;DHT22;10827;50.878;4.382;2022-10-17T21:00:24;18.00;99.90
21338;DHT22;10827;50.878;4.382;2022-10-17T21:02:50;18.10;99.90
21338;DHT22;10827;50.878;4.382;2022-10-17T21:05:16;17.90;99.90
21338;DHT22;10827;50.878;4.382;2022-10-17T21:10:08;18.00;99.90
21338;DHT22;10827;50.878;4.382;2022-10-17T21:12:33;18.10;99.90
21338;DHT22;10827;50.878;4.382;2022-10-17T21:14:59;18.10;99.90
21338;DHT22;10827;50.878;4.382;2022-10-17T21:17:25;18.20;99.90
21338;DHT22;10827;50.878;4.382;2022-10-17T21:19:51;18.40;99.90